Time;durP1;ratioP1;P1;durP2;ratioP2;P2;SDS_P1;SDS_P2;PMS_P1;PMS_P2;Temp;Humidity;BMP_temperature;BMP_pressure;BME280_temperature;BME280_humidity;BME280_pressure;Samples;Min_cycle;Max_cycle;Signal;HPM_P1;HPM_P2
2022/11/20 00:02:02;;;;;;;2.17;0.40;;;10.00;79.40;;;;;;5052472;28;20037;-70
2022/11/20 00:04:27;;;;;;;1.00;0.50;;;10.00;79.70;;;;;;5052283;28;20091;-70
2022/11/20 00:06:53;;;;;;;1.23;0.50;;;10.00;80.30;;;;;;5052147;28;20060;-70
2022/11/20 00:09:19;;;;;;;0.60;0.30;;;9.90;80.20;;;;;;5052281;28;20037;-70
2022/11/20 00:11:44;;;;;;;0.35;0.22;;;9.90;80.10;;;;;;5052484;28;20037;-70
2022/11/20 00:14:10;;;;;;;6.53;0.30;;;9.90;80.50;;;;;;5052285;28;20033;-70
2022/11/20 00:16:36;;;;;;;0.68;0.32;;;9.90;80.80;;;;;;5052320;28;20483;-70
2022/11/20 00:19:02;;;;;;;0.85;0.38;;;9.90;81.10;;;;;;5052216;28;20043;-70
2022/11/20 00:21:28;;;;;;;0.80;0.30;;;9.90;81.60;;;;;;5052070;28;20033;-70
2022/11/20 00:23:56;;;;;;;0.30;0.30;;;9.90;82.00;;;;;;5052424;28;20426;-70
2022/11/20 00:26:23;;;;;;;0.50;0.30;;;9.90;82.50;;;;;;5052323;28;20037;-70
2022/11/20 00:28:54;;;;;;;0.82;0.38;;;9.90;82.00;;;;;;5052364;28;20406;-70
2022/11/20 00:31:20;;;;;;;0.75;0.40;;;9.90;82.00;;;;;;5052149;28;20033;-70
2022/11/20 00:33:46;;;;;;;0.97;0.40;;;9.90;81.80;;;;;;5052297;28;20037;-71
2022/11/20 00:36:20;;;;;;;0.43;0.30;;;9.90;80.20;;;;;;5052097;28;20033;-70
2022/11/20 00:38:47;;;;;;;0.57;0.40;;;9.90;80.00;;;;;;5052092;28;20035;-70
2022/11/20 00:41:15;;;;;;;1.03;0.40;;;10.00;79.80;;;;;;5052105;28;20043;-70
2022/11/20 00:43:42;;;;;;;0.40;0.22;;;10.00;79.20;;;;;;5051979;28;20037;-70
2022/11/20 00:46:08;;;;;;;0.22;0.20;;;10.00;79.20;;;;;;5053673;28;20112;-70
2022/11/20 00:48:34;;;;;;;0.30;0.20;;;10.00;78.00;;;;;;5055547;28;20285;-70
2022/11/20 00:51:00;;;;;;;0.10;0.10;;;10.00;78.10;;;;;;5055363;28;20128;-70
2022/11/20 00:53:26;;;;;;;0.90;0.40;;;9.90;78.70;;;;;;5055506;28;20115;-71
2022/11/20 00:55:57;;;;;;;0.30;0.20;;;9.90;79.00;;;;;;5055177;28;20383;-71
2022/11/20 00:58:24;;;;;;;2.40;0.30;;;10.00;78.30;;;;;;5055517;28;20025;-70
2022/11/20 01:00:50;;;;;;;0.93;0.10;;;10.00;77.80;;;;;;5055452;28;20067;-71
2022/11/20 01:03:18;;;;;;;0.20;0.10;;;10.00;77.10;;;;;;5055042;28;20081;-70
2022/11/20 01:05:44;;;;;;;0.10;0.10;;;10.00;77.00;;;;;;5055029;28;20491;-71
2022/11/20 01:08:10;;;;;;;0.17;0.17;;;10.00;77.70;;;;;;5055012;28;20059;-70
2022/11/20 01:10:36;;;;;;;0.20;0.20;;;9.90;78.40;;;;;;5054938;28;20052;-69
2022/11/20 01:15:46;;;;;;;0.60;0.20;;;9.80;79.80;;;;;;5055167;28;20048;-70
2022/11/20 01:18:12;;;;;;;0.10;0.10;;;9.80;78.30;;;;;;5055226;28;20036;-70
2022/11/20 01:20:37;;;;;;;0.57;0.15;;;9.80;78.50;;;;;;5055004;28;20091;-70
2022/11/20 01:23:04;;;;;;;0.20;0.20;;;9.80;79.40;;;;;;5054927;28;20079;-70
2022/11/20 01:25:30;;;;;;;0.20;0.10;;;9.80;79.50;;;;;;5054872;28;20042;-70
2022/11/20 01:27:55;;;;;;;0.30;0.10;;;9.80;79.40;;;;;;5054941;28;20037;-70
2022/11/20 01:30:21;;;;;;;0.10;0.10;;;9.70;79.50;;;;;;5054601;28;20041;-70
2022/11/20 01:32:46;;;;;;;0.10;0.10;;;9.80;80.10;;;;;;5054468;28;20040;-71
2022/11/20 01:35:12;;;;;;;2.23;0.30;;;9.80;80.10;;;;;;5054534;28;20116;-70
2022/11/20 01:37:38;;;;;;;1.80;0.20;;;9.80;80.20;;;;;;5054898;28;20048;-70
2022/11/20 01:40:04;;;;;;;0.10;0.10;;;9.80;78.40;;;;;;5054917;28;20127;-70
2022/11/20 01:45:52;;;;;;;0.10;0.10;;;9.80;78.20;;;;;;5054750;28;20032;-71
2022/11/20 01:48:21;;;;;;;0.25;0.20;;;9.90;77.80;;;;;;5054539;28;20037;-71
2022/11/20 01:50:48;;;;;;;0.20;0.20;;;9.80;78.20;;;;;;5054317;28;20045;-70
2022/11/20 01:53:17;;;;;;;0.77;0.20;;;9.80;78.70;;;;;;5054571;28;20530;-70
2022/11/20 01:55:51;;;;;;;0.83;0.10;;;9.80;78.60;;;;;;5054500;28;20495;-70
2022/11/20 01:58:20;;;;;;;0.20;0.10;;;9.80;78.90;;;;;;5052242;28;20072;-71
2022/11/20 02:00:46;;;;;;;1.20;0.20;;;9.80;78.40;;;;;;5051427;28;20025;-70
2022/11/20 02:03:15;;;;;;;0.30;0.20;;;9.80;78.30;;;;;;5051484;28;20048;-70
2022/11/20 02:06:18;;;;;;;0.40;0.30;;;9.80;77.40;;;;;;5053610;28;20155;-71
2022/11/20 02:08:44;;;;;;;0.57;0.20;;;9.80;78.10;;;;;;5054154;28;20040;-70
2022/11/20 02:11:10;;;;;;;0.30;0.20;;;9.70;78.70;;;;;;5054023;28;20407;-70
2022/11/20 02:13:44;;;;;;;0.60;0.30;;;9.70;79.50;;;;;;5053773;28;20036;-70
2022/11/20 02:16:17;;;;;;;0.30;0.20;;;9.70;80.20;;;;;;5053727;28;20364;-70
2022/11/20 02:18:44;;;;;;;0.70;0.20;;;9.70;80.40;;;;;;5053793;28;20062;-71
2022/11/20 02:21:34;;;;;;;0.80;0.20;;;9.70;80.60;;;;;;5053574;28;20059;-70
2022/11/20 02:24:07;;;;;;;0.20;0.13;;;9.70;79.30;;;;;;5054148;28;20029;-70
2022/11/20 02:26:35;;;;;;;;;;;9.70;79.30;;;;;;5054056;28;20033;-71
2022/11/20 02:29:02;;;;;;;0.60;0.10;;;9.70;80.10;;;;;;5053367;28;19995;-70
2022/11/20 02:31:27;;;;;;;1.97;0.20;;;9.70;80.50;;;;;;5052963;28;20045;-70
2022/11/20 02:33:57;;;;;;;0.20;0.20;;;9.70;80.90;;;;;;5053411;28;20099;-71
2022/11/20 02:36:26;;;;;;;0.83;0.20;;;9.70;80.90;;;;;;5053310;28;20048;-71
2022/11/20 02:38:52;;;;;;;0.10;0.10;;;9.70;81.40;;;;;;5053830;28;20379;-70
2022/11/20 02:41:17;;;;;;;0.27;0.20;;;9.70;81.10;;;;;;5053456;28;20044;-71
2022/11/20 02:43:43;;;;;;;0.20;0.20;;;9.70;81.60;;;;;;5053192;28;20047;-70
2022/11/20 02:46:09;;;;;;;0.10;0.10;;;9.70;82.10;;;;;;5053315;28;20122;-70
2022/11/20 02:48:35;;;;;;;0.20;0.20;;;9.70;81.60;;;;;;5053638;28;20063;-70
2022/11/20 02:51:01;;;;;;;0.43;0.30;;;9.70;79.90;;;;;;5053046;28;20049;-70
2022/11/20 02:53:27;;;;;;;0.20;0.10;;;9.70;80.30;;;;;;5053238;28;20056;-70
2022/11/20 02:55:53;;;;;;;0.27;0.20;;;9.70;80.30;;;;;;5053266;28;20071;-70
2022/11/20 02:58:18;;;;;;;0.20;0.10;;;9.70;80.30;;;;;;5053207;28;20049;-70
2022/11/20 03:00:44;;;;;;;0.23;0.10;;;9.80;79.10;;;;;;5053119;28;20444;-70
2022/11/20 03:03:10;;;;;;;0.40;0.10;;;9.80;78.60;;;;;;5052676;28;20043;-70
2022/11/20 03:05:35;;;;;;;0.83;0.13;;;9.80;78.60;;;;;;5053089;28;20129;-69
2022/11/20 03:08:01;;;;;;;0.10;0.10;;;9.80;79.00;;;;;;5052469;28;20033;-70
2022/11/20 03:10:27;;;;;;;0.10;0.10;;;9.80;79.00;;;;;;5052793;28;20049;-70
2022/11/20 03:12:55;;;;;;;0.13;0.10;;;9.70;78.70;;;;;;5053036;28;20061;-69
2022/11/20 03:15:21;;;;;;;0.10;0.10;;;9.70;79.30;;;;;;5052866;28;20123;-71
2022/11/20 03:17:47;;;;;;;1.03;0.10;;;9.70;80.10;;;;;;5053025;28;20041;-70
2022/11/20 03:20:13;;;;;;;0.20;0.10;;;9.60;80.70;;;;;;5052494;28;20395;-76
2022/11/20 03:22:38;;;;;;;0.10;0.10;;;9.70;81.00;;;;;;5052866;28;20422;-70
2022/11/20 03:25:04;;;;;;;0.63;0.20;;;9.60;80.70;;;;;;5053038;28;20025;-70
2022/11/20 03:27:34;;;;;;;1.33;0.03;;;9.60;80.80;;;;;;5052863;28;20044;-70
2022/11/20 03:30:00;;;;;;;0.33;0.10;;;9.60;81.00;;;;;;5052339;28;20090;-70
2022/11/20 03:32:26;;;;;;;0.37;0.20;;;9.60;81.60;;;;;;5052653;28;20059;-70
2022/11/20 03:34:52;;;;;;;0.20;0.20;;;9.60;81.90;;;;;;5052793;28;20033;-69
2022/11/20 03:37:17;;;;;;;0.20;0.20;;;9.60;82.20;;;;;;5052899;28;20507;-70
2022/11/20 03:39:43;;;;;;;0.20;0.20;;;9.60;82.10;;;;;;5052576;28;20030;-70
2022/11/20 03:42:54;;;;;;;0.20;0.17;;;9.60;80.50;;;;;;5052510;28;20072;-70
2022/11/20 03:44:55;;;;;;;0.30;0.13;;;9.60;80.50;;;;;;5048537;28;20032;-71
2022/11/20 03:47:21;;;;;;;0.47;0.20;;;9.60;81.00;;;;;;5052664;28;20422;-70
2022/11/20 03:49:46;;;;;;;0.10;0.10;;;9.60;81.20;;;;;;5052615;28;20033;-70
2022/11/20 03:52:12;;;;;;;3.23;0.33;;;9.60;80.90;;;;;;5052195;28;20083;-70
2022/11/20 03:54:38;;;;;;;0.23;0.10;;;9.60;80.40;;;;;;5052372;28;20043;-70
2022/11/20 03:57:03;;;;;;;0.13;0.13;;;9.60;79.00;;;;;;5052361;28;20037;-70
2022/11/20 03:59:29;;;;;;;0.20;0.20;;;9.70;78.90;;;;;;5052486;28;20374;-70
2022/11/20 04:01:54;;;;;;;0.10;0.10;;;9.60;79.60;;;;;;5052474;28;20036;-70
2022/11/20 04:04:20;;;;;;;0.10;0.10;;;9.60;80.40;;;;;;5052400;28;20085;-70
2022/11/20 04:06:46;;;;;;;1.13;0.20;;;9.50;81.30;;;;;;5052239;28;20483;-70
2022/11/20 04:09:12;;;;;;;0.27;0.20;;;9.50;81.40;;;;;;5052490;28;20453;-71
2022/11/20 04:11:40;;;;;;;0.30;0.20;;;9.50;81.40;;;;;;5052291;28;20048;-70
2022/11/20 04:14:11;;;;;;;0.10;0.10;;;9.50;81.40;;;;;;5052576;28;20032;-70
2022/11/20 04:16:37;;;;;;;0.60;0.20;;;9.50;81.50;;;;;;5052400;28;20037;-70
2022/11/20 04:19:06;;;;;;;0.13;0.13;;;9.50;81.70;;;;;;5052288;28;20029;-71
2022/11/20 04:21:32;;;;;;;0.73;0.10;;;9.50;82.20;;;;;;5056291;28;20037;-69
2022/11/20 04:23:58;;;;;;;0.20;0.20;;;9.50;82.20;;;;;;5056223;28;20033;-70
2022/11/20 04:26:26;;;;;;;0.10;0.10;;;9.50;81.70;;;;;;5056399;28;20037;-70
2022/11/20 04:28:52;;;;;;;0.23;0.20;;;9.50;82.20;;;;;;5056269;28;20032;-69
2022/11/20 04:31:21;;;;;;;0.03;0.03;;;9.50;82.60;;;;;;5056164;28;20041;-70
2022/11/20 04:33:47;;;;;;;0.10;0.10;;;9.50;82.90;;;;;;5055911;28;20029;-70
2022/11/20 04:36:15;;;;;;;0.30;0.20;;;9.40;82.60;;;;;;5056195;28;20067;-70
2022/11/20 04:38:41;;;;;;;0.20;0.20;;;9.40;83.30;;;;;;5056011;28;20035;-71
2022/11/20 04:41:12;;;;;;;0.10;0.10;;;9.40;83.70;;;;;;5055811;28;20108;-70
2022/11/20 04:43:37;;;;;;;0.20;0.13;;;9.40;83.50;;;;;;5055954;28;20471;-70
2022/11/20 04:46:03;;;;;;;0.40;0.20;;;9.40;83.10;;;;;;5055981;28;20108;-70
2022/11/20 04:48:30;;;;;;;0.20;0.20;;;9.40;83.50;;;;;;5055951;28;20446;-71
2022/11/20 04:50:55;;;;;;;0.23;0.17;;;9.40;83.40;;;;;;5055525;28;20045;-70
2022/11/20 04:53:21;;;;;;;0.93;0.20;;;9.40;83.50;;;;;;5055635;28;20041;-70
2022/11/20 04:55:47;;;;;;;0.20;0.20;;;9.40;82.90;;;;;;5055675;28;20104;-70
2022/11/20 04:58:14;;;;;;;2.53;0.30;;;9.30;83.20;;;;;;5055871;28;20112;-71
2022/11/20 05:00:40;;;;;;;0.13;0.10;;;9.40;83.60;;;;;;5055523;28;20025;-70
2022/11/20 05:03:05;;;;;;;0.10;0.10;;;9.30;83.50;;;;;;5055585;28;20380;-70
2022/11/20 05:05:31;;;;;;;0.27;0.20;;;9.40;84.20;;;;;;5055388;28;20033;-72
2022/11/20 05:07:58;;;;;;;0.20;0.20;;;9.40;83.70;;;;;;5055271;28;20449;-71
2022/11/20 05:10:25;;;;;;;0.20;0.20;;;9.40;83.50;;;;;;5055355;28;20048;-71
2022/11/20 05:12:51;;;;;;;0.87;0.20;;;9.40;83.70;;;;;;5055416;28;20029;-71
2022/11/20 05:15:16;;;;;;;0.30;0.20;;;9.40;83.90;;;;;;5055558;28;20540;-70
2022/11/20 05:17:50;;;;;;;0.20;0.20;;;9.30;84.10;;;;;;5055053;28;20056;-70
2022/11/20 05:20:16;;;;;;;0.33;0.30;;;9.30;84.50;;;;;;5054990;28;20103;-69
2022/11/20 05:22:43;;;;;;;0.60;0.20;;;9.30;84.80;;;;;;5055037;28;20167;-70
2022/11/20 05:25:09;;;;;;;0.17;0.17;;;9.30;84.80;;;;;;5055071;28;20033;-70
2022/11/20 05:27:34;;;;;;;1.00;0.20;;;9.30;84.90;;;;;;5054980;28;20560;-71
2022/11/20 05:30:00;;;;;;;1.63;0.40;;;9.30;85.10;;;;;;5054911;28;20056;-70
2022/11/20 05:32:26;;;;;;;2.63;0.23;;;9.30;85.20;;;;;;5054117;28;20033;-70
2022/11/20 05:34:52;;;;;;;0.43;0.20;;;9.30;84.90;;;;;;5054921;28;20111;-70
2022/11/20 05:37:18;;;;;;;1.90;0.37;;;9.30;85.10;;;;;;5054644;28;20037;-70
2022/11/20 05:39:43;;;;;;;4.30;0.80;;;9.30;85.00;;;;;;5055128;28;20039;-71
2022/11/20 05:44:53;;;;;;;0.57;0.40;;;9.20;85.20;;;;;;5054694;28;20043;-70
2022/11/20 05:47:19;;;;;;;0.80;0.40;;;9.30;85.50;;;;;;5054310;28;20037;-72
2022/11/20 05:49:44;;;;;;;3.40;0.30;;;9.20;85.30;;;;;;5054565;28;20044;-70
2022/11/20 05:52:10;;;;;;;0.97;0.30;;;9.20;85.60;;;;;;5054604;28;20044;-71
2022/11/20 05:54:36;;;;;;;1.60;0.40;;;9.20;85.80;;;;;;5054584;28;20483;-70
2022/11/20 05:57:01;;;;;;;0.90;0.50;;;9.20;86.20;;;;;;5054266;28;20069;-70
2022/11/20 05:59:27;;;;;;;0.50;0.30;;;9.20;85.70;;;;;;5054201;28;20402;-71
2022/11/20 06:01:53;;;;;;;0.63;0.40;;;9.20;85.90;;;;;;5054372;28;20099;-70
2022/11/20 06:04:18;;;;;;;0.60;0.40;;;9.20;86.30;;;;;;5054421;28;20066;-70
2022/11/20 06:06:44;;;;;;;0.40;0.40;;;9.20;86.40;;;;;;5054223;28;20090;-71
2022/11/20 06:09:09;;;;;;;0.57;0.37;;;9.20;86.40;;;;;;5054470;28;20084;-70
2022/11/20 06:11:35;;;;;;;0.53;0.30;;;9.20;85.70;;;;;;5054035;28;20052;-70
2022/11/20 06:14:01;;;;;;;0.47;0.37;;;9.10;85.70;;;;;;5054014;28;20040;-70
2022/11/20 06:16:26;;;;;;;1.40;0.60;;;9.10;85.70;;;;;;5053963;28;20506;-70
2022/11/20 06:18:52;;;;;;;0.70;0.50;;;9.10;86.00;;;;;;5054240;28;20368;-70
2022/11/20 06:21:20;;;;;;;0.80;0.50;;;9.00;86.90;;;;;;5053801;28;20033;-70
2022/11/20 06:23:46;;;;;;;1.47;0.80;;;9.00;87.10;;;;;;5054255;28;20411;-69
2022/11/20 06:26:18;;;;;;;1.23;0.70;;;9.00;86.80;;;;;;5053732;28;20075;-70
2022/11/20 06:28:44;;;;;;;1.50;0.60;;;9.00;86.60;;;;;;5054001;28;20037;-70
2022/11/20 06:31:12;;;;;;;1.00;0.60;;;9.00;86.90;;;;;;5053614;28;20044;-69
2022/11/20 06:33:37;;;;;;;2.00;0.73;;;9.00;86.90;;;;;;5053886;28;20094;-70
2022/11/20 06:36:04;;;;;;;0.63;0.50;;;9.00;86.80;;;;;;5053850;28;20450;-70
2022/11/20 06:38:30;;;;;;;0.77;0.40;;;9.10;86.60;;;;;;5053612;28;20112;-69
2022/11/20 06:40:56;;;;;;;0.50;0.40;;;9.10;86.60;;;;;;5053337;28;20044;-70
2022/11/20 06:43:22;;;;;;;0.70;0.40;;;9.10;85.60;;;;;;5053340;28;20029;-71
2022/11/20 06:45:53;;;;;;;0.40;0.37;;;9.10;85.90;;;;;;5053451;28;20029;-70
2022/11/20 06:48:19;;;;;;;1.43;0.37;;;9.10;85.60;;;;;;5053480;28;20502;-70
2022/11/20 06:50:44;;;;;;;0.73;0.43;;;9.10;85.80;;;;;;5053317;28;20101;-70
2022/11/20 06:53:10;;;;;;;0.30;0.30;;;9.10;86.10;;;;;;5053143;28;20029;-70
2022/11/20 06:55:36;;;;;;;0.70;0.50;;;9.10;85.60;;;;;;5053434;28;20033;-70
2022/11/20 06:58:01;;;;;;;0.53;0.37;;;9.10;85.80;;;;;;5053385;28;20477;-70
2022/11/20 07:00:27;;;;;;;0.43;0.30;;;9.10;86.20;;;;;;5052998;28;20361;-70
2022/11/20 07:02:52;;;;;;;0.50;0.40;;;9.10;86.20;;;;;;5053185;28;20043;-70
2022/11/20 07:05:18;;;;;;;0.47;0.40;;;9.20;86.00;;;;;;5053199;28;20037;-70
2022/11/20 07:07:44;;;;;;;1.27;0.33;;;9.10;86.10;;;;;;5053407;28;20029;-70
2022/11/20 07:10:10;;;;;;;0.37;0.33;;;9.10;85.80;;;;;;5054011;28;20025;-70
2022/11/20 07:12:35;;;;;;;0.30;0.20;;;9.10;85.90;;;;;;5053190;28;20033;-70
2022/11/20 07:15:01;;;;;;;0.70;0.33;;;9.20;85.90;;;;;;5052632;28;20033;-70
2022/11/20 07:17:27;;;;;;;0.60;0.50;;;9.20;85.60;;;;;;5052891;28;20033;-70
2022/11/20 07:19:53;;;;;;;0.70;0.40;;;9.20;85.50;;;;;;5052785;28;20029;-70
2022/11/20 07:22:21;;;;;;;0.77;0.40;;;9.20;85.40;;;;;;5052868;28;20083;-70
2022/11/20 07:24:48;;;;;;;0.17;0.13;;;9.20;85.10;;;;;;5052787;28;20399;-71
2022/11/20 07:27:14;;;;;;;0.27;0.20;;;9.20;85.30;;;;;;5052915;28;20040;-70
2022/11/20 07:29:40;;;;;;;1.03;0.40;;;9.20;85.20;;;;;;5052515;28;20558;-70
2022/11/20 07:32:05;;;;;;;0.40;0.23;;;9.30;84.80;;;;;;5051929;28;20045;-69
2022/11/20 07:34:31;;;;;;;1.73;0.40;;;9.20;85.00;;;;;;5053269;28;20056;-69
2022/11/20 07:36:56;;;;;;;1.57;0.40;;;9.20;85.40;;;;;;5052772;28;20032;-70
2022/11/20 07:39:22;;;;;;;1.83;0.70;;;9.30;85.90;;;;;;5052750;28;20040;-70
2022/11/20 07:41:48;;;;;;;1.47;0.73;;;9.20;86.10;;;;;;5052508;28;20044;-71
2022/11/20 07:44:13;;;;;;;6.63;2.00;;;9.30;86.00;;;;;;5052498;28;20056;-71
2022/11/20 07:46:39;;;;;;;3.67;0.90;;;9.30;86.20;;;;;;5052762;28;20076;-70
2022/11/20 07:49:05;;;;;;;0.63;0.50;;;9.30;86.30;;;;;;5052950;28;20048;-70
2022/11/20 07:51:30;;;;;;;2.70;0.60;;;9.30;86.20;;;;;;5052539;28;20045;-70
2022/11/20 07:53:56;;;;;;;2.17;0.70;;;9.30;86.40;;;;;;5052330;28;20037;-70
2022/11/20 07:56:22;;;;;;;1.70;0.80;;;9.30;86.80;;;;;;5056345;28;20090;-70
2022/11/20 07:58:50;;;;;;;6.27;0.70;;;9.40;87.10;;;;;;5056532;28;20068;-70
2022/11/20 08:01:16;;;;;;;1.20;0.70;;;9.40;87.10;;;;;;5056659;28;20041;-71
2022/11/20 08:03:42;;;;;;;1.50;0.70;;;9.40;87.20;;;;;;5056504;28;20053;-71
2022/11/20 08:06:07;;;;;;;2.00;0.80;;;9.40;87.50;;;;;;5056423;28;20029;-71
2022/11/20 08:08:33;;;;;;;1.77;0.80;;;9.40;87.90;;;;;;5056539;28;20033;-73
2022/11/20 08:16:28;;;;;;;1.73;0.97;;;9.50;89.00;;;;;;5056659;28;20044;-73
2022/11/20 08:18:54;;;;;;;2.43;0.97;;;9.50;89.00;;;;;;5056051;28;20037;-75
2022/11/20 08:21:20;;;;;;;1.13;0.83;;;9.50;89.00;;;;;;5056292;28;20512;-73
2022/11/20 08:23:46;;;;;;;2.07;1.07;;;9.50;88.90;;;;;;5055988;28;20033;-72
2022/11/20 08:26:11;;;;;;;2.40;1.50;;;9.60;88.90;;;;;;5056019;28;20394;-74
2022/11/20 08:28:37;;;;;;;2.37;1.47;;;9.60;88.70;;;;;;5037607;28;20399;-73
2022/11/20 08:31:03;;;;;;;2.33;1.30;;;9.60;88.60;;;;;;5035642;28;20046;-73
2022/11/20 08:33:29;;;;;;;1.33;0.77;;;9.60;88.00;;;;;;5035584;28;20038;-72
2022/11/20 08:35:59;;;;;;;1.40;0.60;;;9.60;87.40;;;;;;5035980;28;20057;-73
2022/11/20 08:38:25;;;;;;;2.03;0.70;;;9.60;86.90;;;;;;5035673;28;20324;-73
2022/11/20 08:43:35;;;;;;;0.73;0.43;;;9.70;86.10;;;;;;5035824;28;20036;-74
2022/11/20 08:46:01;;;;;;;1.03;0.50;;;9.70;85.90;;;;;;5035836;28;20041;-73
2022/11/20 08:48:26;;;;;;;1.40;0.43;;;9.70;86.10;;;;;;5035924;28;20033;-74
2022/11/20 08:50:52;;;;;;;0.70;0.67;;;9.70;85.90;;;;;;5035731;28;20045;-71
2022/11/20 08:53:17;;;;;;;4.47;0.60;;;9.70;85.70;;;;;;5035936;28;20049;-71
2022/11/20 08:55:43;;;;;;;1.10;0.60;;;9.80;85.50;;;;;;5035703;28;20029;-72
2022/11/20 08:58:09;;;;;;;1.15;0.65;;;9.80;85.70;;;;;;5035684;28;20021;-70
2022/11/20 09:00:35;;;;;;;2.47;1.27;;;9.80;85.90;;;;;;5035666;28;20083;-71
2022/11/20 09:03:01;;;;;;;1.40;1.00;;;9.80;86.00;;;;;;5035284;28;20041;-71
2022/11/20 09:05:27;;;;;;;1.60;0.83;;;9.80;86.00;;;;;;5035125;28;20034;-71
2022/11/20 09:07:56;;;;;;;1.23;0.82;;;9.90;86.10;;;;;;5034572;28;20436;-71
2022/11/20 09:10:22;;;;;;;0.77;0.63;;;9.90;85.90;;;;;;5035293;28;20025;-71
2022/11/20 09:12:51;;;;;;;2.20;0.70;;;9.90;85.90;;;;;;5035422;28;20502;-71
2022/11/20 09:15:17;;;;;;;1.13;0.60;;;9.90;86.00;;;;;;5035165;28;20053;-71
2022/11/20 09:17:53;;;;;;;1.23;0.70;;;10.00;85.90;;;;;;5034951;28;20135;-71
2022/11/20 09:20:19;;;;;;;1.23;0.70;;;10.00;85.80;;;;;;5035357;28;20037;-71
2022/11/20 09:22:45;;;;;;;0.77;0.50;;;10.00;85.40;;;;;;5035052;28;20033;-71
2022/11/20 09:25:11;;;;;;;0.73;0.50;;;10.00;85.00;;;;;;5035251;28;20047;-71
2022/11/20 09:27:36;;;;;;;1.37;0.40;;;10.00;84.60;;;;;;5035263;28;20041;-71
2022/11/20 09:30:03;;;;;;;0.40;0.33;;;10.10;84.50;;;;;;5035157;28;20041;-71
2022/11/20 09:32:29;;;;;;;1.00;0.30;;;10.10;84.40;;;;;;5033894;28;20119;-73
2022/11/20 09:34:54;;;;;;;1.17;0.50;;;10.20;84.10;;;;;;5032168;28;20496;-71
2022/11/20 09:37:20;;;;;;;2.47;0.82;;;10.20;83.70;;;;;;5032207;28;20037;-71
2022/11/20 09:39:46;;;;;;;0.50;0.33;;;10.20;82.90;;;;;;5034582;28;20029;-72
2022/11/20 09:42:20;;;;;;;1.63;0.50;;;10.20;82.60;;;;;;5034440;28;20076;-71
2022/11/20 09:45:01;;;;;;;1.08;0.40;;;10.30;81.70;;;;;;5033914;28;20479;-71
2022/11/20 09:47:44;;;;;;;0.95;0.70;;;10.30;81.50;;;;;;5034234;28;20111;-71
2022/11/20 09:50:37;;;;;;;1.58;0.50;;;10.40;81.20;;;;;;5034465;28;20037;-71
2022/11/20 09:53:18;;;;;;;0.68;0.50;;;10.40;81.60;;;;;;5034356;28;20042;-71
2022/11/20 09:55:46;;;;;;;2.97;0.52;;;10.50;81.10;;;;;;5034725;28;20037;-71
2022/11/20 09:58:38;;;;;;;0.40;0.30;;;10.50;81.20;;;;;;5032948;28;20574;-71
2022/11/20 10:01:14;;;;;;;0.70;0.50;;;10.70;80.50;;;;;;5031569;28;20048;-71
2022/11/20 10:03:53;;;;;;;0.57;0.37;;;10.70;80.10;;;;;;5031466;28;20045;-71
2022/11/20 10:06:26;;;;;;;0.70;0.50;;;10.80;80.30;;;;;;5034134;28;20036;-73
2022/11/20 10:09:01;;;;;;;0.57;0.40;;;10.80;80.40;;;;;;5034353;28;20029;-71
2022/11/20 10:11:39;;;;;;;0.73;0.52;;;10.80;79.50;;;;;;5034255;28;20503;-71
2022/11/20 10:14:16;;;;;;;0.50;0.40;;;10.90;79.20;;;;;;5033608;28;20073;-71
2022/11/20 10:17:10;;;;;;;1.50;0.40;;;10.90;78.80;;;;;;5034101;28;20034;-71
2022/11/20 10:20:09;;;;;;;0.85;0.45;;;10.90;78.30;;;;;;5034047;28;20034;-71
2022/11/20 10:22:42;;;;;;;0.67;0.50;;;10.90;78.60;;;;;;5033921;28;20034;-71
2022/11/20 10:25:19;;;;;;;1.27;0.65;;;11.00;79.00;;;;;;5033917;28;20088;-71
2022/11/20 10:28:12;;;;;;;0.82;0.32;;;11.10;79.20;;;;;;5033364;28;20108;-70
2022/11/20 10:30:42;;;;;;;3.13;0.50;;;11.10;79.20;;;;;;5033734;28;20522;-71
2022/11/20 10:33:19;;;;;;;0.50;0.40;;;11.10;79.00;;;;;;5033921;28;20475;-74
2022/11/20 10:35:58;;;;;;;0.52;0.50;;;11.10;78.50;;;;;;5033484;28;20041;-73
2022/11/20 10:38:49;;;;;;;2.08;0.80;;;11.10;77.90;;;;;;5045775;28;20041;-71
2022/11/20 10:41:29;;;;;;;1.05;0.50;;;11.10;78.20;;;;;;5053535;28;20032;-73
2022/11/20 10:47:08;;;;;;;0.68;0.47;;;11.10;77.80;;;;;;5035347;28;20113;-72
2022/11/20 10:49:34;;;;;;;1.50;0.65;;;11.00;78.00;;;;;;5029364;28;20041;-72
2022/11/20 10:52:13;;;;;;;0.40;0.40;;;11.00;77.90;;;;;;5032447;28;20080;-72
2022/11/20 10:55:11;;;;;;;0.77;0.50;;;11.00;77.80;;;;;;5032479;28;20053;-72
2022/11/20 10:58:12;;;;;;;0.70;0.40;;;11.00;77.90;;;;;;5032637;28;20037;-72
2022/11/20 11:00:38;;;;;;;1.40;0.32;;;11.00;77.90;;;;;;4971100;28;20050;-72
2022/11/20 11:03:27;;;;;;;0.50;0.45;;;11.10;78.50;;;;;;5018543;28;20041;-72
2022/11/20 11:06:36;;;;;;;0.52;0.47;;;11.20;77.90;;;;;;5032942;28;20526;-72
2022/11/20 11:09:14;;;;;;;0.60;0.40;;;11.20;76.40;;;;;;5010729;28;20076;-72
2022/11/20 11:11:40;;;;;;;0.60;0.50;;;11.30;76.80;;;;;;5008764;28;20045;-72
2022/11/20 11:14:11;;;;;;;1.05;0.52;;;11.40;76.70;;;;;;5024126;28;20502;-72
2022/11/20 11:16:52;;;;;;;0.98;0.60;;;11.40;77.20;;;;;;5032906;28;20064;-75
2022/11/20 11:19:18;;;;;;;3.28;0.60;;;11.50;77.40;;;;;;5033079;28;20108;-72
2022/11/20 11:21:49;;;;;;;1.02;0.50;;;11.50;76.70;;;;;;5033116;28;20120;-72
2022/11/20 11:24:24;;;;;;;1.23;0.60;;;11.50;75.90;;;;;;5033304;28;20038;-75
2022/11/20 11:26:56;;;;;;;0.80;0.60;;;11.50;75.80;;;;;;5032822;28;20026;-71
2022/11/20 11:29:21;;;;;;;1.63;0.73;;;11.50;75.80;;;;;;5032383;28;20040;-71
2022/11/20 11:31:47;;;;;;;1.85;0.85;;;11.50;75.80;;;;;;5032661;28;20042;-72
2022/11/20 11:34:17;;;;;;;1.85;1.00;;;11.60;75.60;;;;;;5030542;28;20034;-71
2022/11/20 11:36:56;;;;;;;0.90;0.70;;;11.60;75.80;;;;;;5029919;28;20042;-72
2022/11/20 11:39:22;;;;;;;0.90;0.60;;;11.70;76.00;;;;;;5032406;28;20549;-75
2022/11/20 11:41:49;;;;;;;1.63;0.68;;;11.80;76.10;;;;;;5032668;28;20087;-72
2022/11/20 11:47:23;;;;;;;0.60;0.50;;;12.00;75.50;;;;;;5033113;28;20040;-75
2022/11/20 11:49:48;;;;;;;0.73;0.47;;;12.00;74.80;;;;;;5032613;28;20458;-76
2022/11/20 11:52:21;;;;;;;0.65;0.52;;;12.00;74.40;;;;;;5032562;28;20041;-77
2022/11/20 11:54:59;;;;;;;0.85;0.40;;;12.10;74.80;;;;;;5032295;28;20430;-73
2022/11/20 11:57:37;;;;;;;0.57;0.40;;;12.10;73.50;;;;;;5032293;28;20044;-74
2022/11/20 12:00:12;;;;;;;1.05;0.50;;;12.10;73.80;;;;;;5029523;28;20475;-73
2022/11/20 12:02:51;;;;;;;1.10;0.70;;;12.00;73.40;;;;;;5029546;28;20484;-73
2022/11/20 12:05:23;;;;;;;1.00;0.50;;;12.00;73.80;;;;;;5031516;28;20042;-72
2022/11/20 12:07:51;;;;;;;0.68;0.50;;;12.00;74.30;;;;;;5032505;28;20033;-72
2022/11/20 12:10:24;;;;;;;1.02;0.40;;;12.00;74.40;;;;;;5032337;28;20053;-73
2022/11/20 12:12:52;;;;;;;;;;;11.90;72.50;;;;;;5032534;28;20060;-72
2022/11/20 12:15:37;;;;;;;0.60;0.40;;;11.80;73.00;;;;;;5032375;28;19976;-72
2022/11/20 12:18:15;;;;;;;1.05;0.73;;;11.80;73.00;;;;;;5032382;28;20056;-72
2022/11/20 12:21:00;;;;;;;1.58;0.75;;;11.80;72.70;;;;;;5031956;28;20045;-72
2022/11/20 12:23:32;;;;;;;0.82;0.50;;;11.70;73.00;;;;;;5032564;28;20116;-71
2022/11/20 12:26:04;;;;;;;0.60;0.45;;;11.70;73.70;;;;;;5032262;28;20044;-72
2022/11/20 12:28:56;;;;;;;0.65;0.30;;;11.60;73.40;;;;;;5031965;28;20502;-72
2022/11/20 12:31:40;;;;;;;1.67;0.67;;;11.60;73.90;;;;;;5032443;28;20049;-73
2022/11/20 12:34:27;;;;;;;0.98;0.60;;;11.70;74.50;;;;;;5032186;28;20303;-73
2022/11/20 12:37:23;;;;;;;1.00;0.70;;;11.70;74.60;;;;;;5031894;28;20041;-73
2022/11/20 12:39:57;;;;;;;0.93;0.65;;;11.80;74.10;;;;;;5030677;28;20440;-73
2022/11/20 12:45:40;;;;;;;0.70;0.50;;;11.80;73.60;;;;;;5036154;28;20482;-71
2022/11/20 12:48:42;;;;;;;0.80;0.50;;;11.80;73.90;;;;;;5035353;28;20026;-73
2022/11/20 12:52:06;;;;;;;0.45;0.35;;;11.90;73.50;;;;;;5035297;28;20053;-71
2022/11/20 12:54:40;;;;;;;0.63;0.40;;;11.90;73.30;;;;;;5013771;28;20030;-71
2022/11/20 12:57:35;;;;;;;1.20;0.75;;;11.90;73.30;;;;;;5014203;28;20042;-71
2022/11/20 13:00:18;;;;;;;0.93;0.60;;;12.00;73.20;;;;;;5031605;28;20030;-72
2022/11/20 13:02:50;;;;;;;;;;;12.00;73.00;;;;;;5035721;28;20037;-71
2022/11/20 13:05:29;;;;;;;0.85;0.68;;;12.00;72.80;;;;;;5035845;28;20359;-72
2022/11/20 13:07:56;;;;;;;1.75;0.50;;;12.00;73.60;;;;;;5036345;28;20443;-71
2022/11/20 13:10:43;;;;;;;0.60;0.52;;;12.00;72.70;;;;;;5035260;28;20045;-72
2022/11/20 13:13:23;;;;;;;0.57;0.40;;;11.90;72.20;;;;;;5035279;28;20034;-71
2022/11/20 13:16:36;;;;;;;0.95;0.43;;;12.00;72.30;;;;;;5035353;28;20064;-72
2022/11/20 13:19:04;;;;;;;1.48;0.60;;;12.00;72.40;;;;;;5013296;28;20108;-71
2022/11/20 13:21:39;;;;;;;1.58;0.80;;;12.00;73.10;;;;;;5012829;28;20096;-71
2022/11/20 13:24:07;;;;;;;0.77;0.40;;;12.00;73.40;;;;;;5026739;28;20040;-70
2022/11/20 13:26:33;;;;;;;1.20;0.70;;;12.00;73.30;;;;;;5035501;28;20033;-71
2022/11/20 13:29:11;;;;;;;1.65;0.60;;;12.00;73.20;;;;;;5034833;28;20124;-71
2022/11/20 13:31:42;;;;;;;0.55;0.40;;;12.00;72.90;;;;;;5035234;28;20088;-71
2022/11/20 13:34:13;;;;;;;1.15;0.88;;;11.90;72.80;;;;;;5035046;28;20368;-71
2022/11/20 13:36:55;;;;;;;0.88;0.40;;;12.00;72.70;;;;;;5034798;28;20033;-71